createdAt,value
2022-11-01T00:01:07.618Z,12.31
2022-11-01T00:03:34.320Z,12.31
2022-11-01T00:06:00.928Z,12.34
2022-11-01T00:08:27.430Z,12.36
2022-11-01T00:11:01.836Z,12.42
2022-11-01T00:13:28.848Z,12.39
2022-11-01T00:15:55.288Z,12.48
2022-11-01T00:18:21.750Z,12.39
2022-11-01T00:20:48.210Z,12.38
2022-11-01T00:23:15.963Z,12.35
2022-11-01T00:25:42.461Z,12.44
2022-11-01T00:28:08.927Z,12.52
2022-11-01T00:30:39.282Z,12.55
2022-11-01T00:33:06.070Z,12.59
2022-11-01T00:35:33.154Z,12.59
2022-11-01T00:38:00.347Z,12.62
2022-11-01T00:40:27.092Z,12.65
2022-11-01T00:42:53.585Z,12.66
2022-11-01T00:45:20.063Z,12.70
2022-11-01T00:47:47.424Z,12.73
2022-11-01T00:50:14.154Z,12.67
2022-11-01T00:52:40.812Z,12.65
2022-11-01T00:55:07.552Z,12.70
2022-11-01T00:57:34.018Z,12.69
2022-11-01T01:00:00.599Z,12.69
2022-11-01T01:02:27.208Z,12.60
2022-11-01T01:04:54.737Z,12.64
2022-11-01T01:07:21.273Z,12.59
2022-11-01T01:09:47.734Z,12.73
2022-11-01T01:12:14.190Z,12.69
2022-11-01T01:14:40.635Z,12.79
2022-11-01T01:17:07.857Z,12.76
2022-11-01T01:19:34.392Z,12.85
2022-11-01T01:22:01.124Z,12.74
2022-11-01T01:24:27.828Z,12.82
2022-11-01T01:26:54.603Z,12.70
2022-11-01T01:29:21.070Z,12.73
2022-11-01T01:31:47.526Z,12.62
2022-11-01T01:34:13.978Z,12.66
2022-11-01T01:36:40.462Z,12.68
2022-11-01T01:39:06.943Z,12.66
2022-11-01T01:41:51.957Z,12.67
2022-11-01T01:44:46.178Z,12.68
2022-11-01T01:47:14.374Z,12.68
2022-11-01T01:49:42.652Z,12.75
2022-11-01T01:52:09.523Z,12.73
2022-11-01T01:54:36.111Z,12.75
2022-11-01T01:57:02.558Z,12.81
2022-11-01T01:59:29.029Z,12.74
2022-11-01T02:01:55.670Z,12.70
2022-11-01T02:04:26.370Z,12.74
2022-11-01T02:06:52.825Z,12.79
2022-11-01T02:09:19.599Z,12.80
2022-11-01T02:11:46.144Z,12.62
2022-11-01T02:14:12.610Z,12.59
2022-11-01T02:16:46.400Z,12.55
2022-11-01T02:19:31.695Z,12.54
2022-11-01T02:22:23.220Z,12.46
2022-11-01T02:25:11.514Z,12.55
2022-11-01T02:27:43.898Z,12.53
2022-11-01T02:30:23.926Z,12.48
2022-11-01T02:33:07.625Z,12.47
2022-11-01T02:35:33.969Z,12.59
2022-11-01T02:38:18.495Z,12.52
2022-11-01T02:41:03.757Z,12.52
2022-11-01T02:43:33.356Z,12.56
2022-11-01T02:46:21.777Z,12.61
2022-11-01T02:48:48.378Z,12.56
2022-11-01T02:51:17.871Z,12.64
2022-11-01T02:53:44.446Z,12.57
2022-11-01T02:56:11.250Z,12.57
2022-11-01T02:58:37.706Z,12.62
2022-11-01T03:01:15.098Z,12.54
2022-11-01T03:03:43.502Z,12.62
2022-11-01T03:06:20.886Z,12.61
2022-11-01T03:08:59.249Z,12.57
2022-11-01T03:11:39.552Z,12.56
2022-11-01T03:14:14.825Z,12.69
2022-11-01T03:17:01.563Z,12.55
2022-11-01T03:19:43.975Z,12.48
2022-11-01T03:22:14.024Z,12.54
2022-11-01T03:24:43.517Z,12.60
2022-11-01T03:27:35.493Z,12.64
2022-11-01T03:30:05.645Z,12.62
2022-11-01T03:32:36.589Z,12.58
2022-11-01T03:35:03.797Z,12.58
2022-11-01T03:37:30.774Z,12.57
2022-11-01T03:39:58.317Z,12.70
2022-11-01T03:42:25.012Z,12.62
2022-11-01T03:44:57.404Z,12.64
2022-11-01T03:47:23.960Z,12.67
2022-11-01T03:50:13.590Z,12.60
2022-11-01T03:52:40.054Z,12.66
2022-11-01T03:55:19.385Z,12.56
2022-11-01T03:57:47.610Z,12.59
2022-11-01T04:00:19.216Z,12.49
2022-11-01T04:02:45.668Z,12.52
2022-11-01T04:05:12.446Z,12.50
2022-11-01T04:07:39.431Z,12.54
2022-11-01T04:10:06.815Z,12.38
2022-11-01T04:12:33.318Z,12.33
2022-11-01T04:15:18.309Z,12.39
2022-11-01T04:18:03.472Z,12.32
2022-11-01T04:20:36.277Z,12.49
2022-11-01T04:23:05.397Z,12.48
2022-11-01T04:25:33.056Z,12.48
2022-11-01T04:27:59.800Z,12.53
2022-11-01T04:30:28.096Z,12.43
2022-11-01T04:32:55.116Z,12.38
2022-11-01T04:35:22.355Z,12.36
2022-11-01T04:37:48.856Z,12.38
2022-11-01T04:40:15.479Z,12.50
2022-11-01T04:42:41.969Z,12.45
2022-11-01T04:45:08.910Z,12.44
2022-11-01T04:47:35.362Z,12.45
2022-11-01T04:50:01.818Z,12.52
2022-11-01T04:52:28.301Z,12.38
2022-11-01T04:54:54.768Z,12.36
2022-11-01T04:57:24.289Z,12.39
2022-11-01T04:59:51.510Z,12.52
2022-11-01T05:02:19.079Z,12.57
2022-11-01T05:04:45.655Z,12.58
2022-11-01T05:07:12.393Z,12.71
2022-11-01T05:09:38.841Z,12.65
2022-11-01T05:12:05.304Z,12.63
2022-11-01T05:14:31.752Z,12.68
2022-11-01T05:16:58.560Z,12.62
2022-11-01T05:19:25.274Z,12.61
2022-11-01T05:21:52.146Z,12.76
2022-11-01T05:24:19.754Z,12.64
2022-11-01T05:26:46.630Z,12.68
2022-11-01T05:29:24.453Z,12.69
2022-11-01T05:31:57.836Z,12.63
2022-11-01T05:34:24.288Z,12.57
2022-11-01T05:36:50.753Z,12.56
2022-11-01T05:39:17.290Z,12.69
2022-11-01T05:41:43.965Z,12.79
2022-11-01T05:44:10.453Z,12.83
2022-11-01T05:46:37.106Z,12.85
2022-11-01T05:49:04.652Z,12.91
2022-11-01T05:51:31.176Z,12.96
2022-11-01T05:53:57.737Z,12.94
2022-11-01T05:56:24.262Z,12.96
2022-11-01T05:58:50.829Z,12.89
2022-11-01T06:01:17.961Z,12.94
2022-11-01T06:03:49.416Z,12.93
2022-11-01T06:06:15.910Z,13.04
2022-11-01T06:08:42.452Z,13.06
2022-11-01T06:11:12.235Z,13.15
2022-11-01T06:13:38.814Z,13.07
2022-11-01T06:16:06.013Z,13.12
2022-11-01T06:18:34.775Z,13.20
2022-11-01T06:21:01.297Z,13.26
2022-11-01T06:23:27.831Z,13.29
2022-11-01T06:26:04.695Z,13.36
2022-11-01T06:28:33.977Z,13.40
2022-11-01T06:31:03.351Z,13.46
2022-11-01T06:33:30.643Z,13.43
2022-11-01T06:35:59.699Z,13.45
2022-11-01T06:38:26.313Z,13.56
2022-11-01T06:40:52.838Z,13.58
2022-11-01T06:43:19.375Z,13.66
2022-11-01T06:45:45.872Z,13.68
2022-11-01T06:48:12.446Z,13.45
2022-11-01T06:50:38.935Z,13.55
2022-11-01T06:53:05.463Z,13.54
2022-11-01T06:55:34.757Z,13.32
2022-11-01T06:58:04.744Z,13.45
2022-11-01T07:00:32.038Z,13.40
2022-11-01T07:03:04.314Z,13.47
2022-11-01T07:05:36.121Z,13.54
2022-11-01T07:08:14.534Z,13.54
2022-11-01T07:10:43.092Z,13.54
2022-11-01T07:13:14.541Z,13.53
2022-11-01T07:15:41.275Z,13.55
2022-11-01T07:18:12.303Z,13.61
2022-11-01T07:20:41.918Z,13.53
2022-11-01T07:23:17.637Z,13.71
2022-11-01T07:25:44.281Z,13.66
2022-11-01T07:28:12.017Z,13.67
2022-11-01T07:30:39.274Z,13.89
2022-11-01T07:33:06.118Z,13.80
2022-11-01T07:35:33.758Z,13.97
2022-11-01T07:38:02.823Z,13.88
2022-11-01T07:40:34.283Z,13.96
2022-11-01T07:43:02.270Z,14.04
2022-11-01T07:45:30.390Z,14.11
2022-11-01T07:48:34.446Z,14.26
2022-11-01T07:51:07.039Z,14.23
2022-11-01T07:53:33.717Z,14.29
2022-11-01T07:56:01.654Z,14.11
2022-11-01T07:58:28.373Z,14.25
2022-11-01T08:00:54.995Z,14.30
2022-11-01T08:03:21.582Z,14.31
2022-11-01T08:05:49.449Z,14.40
2022-11-01T08:08:17.001Z,14.45
2022-11-01T08:10:48.534Z,14.49
2022-11-01T08:13:20.543Z,14.49
2022-11-01T08:15:48.085Z,14.49
2022-11-01T08:18:15.262Z,14.60
2022-11-01T08:20:44.556Z,14.66
2022-11-01T08:23:11.640Z,14.60
2022-11-01T08:25:38.605Z,14.62
2022-11-01T08:28:07.642Z,14.70
2022-11-01T08:30:36.345Z,14.75
2022-11-01T08:33:04.274Z,14.73
2022-11-01T08:35:31.538Z,14.91
2022-11-01T08:37:59.168Z,15.00
2022-11-01T08:40:26.404Z,15.12
2022-11-01T08:42:52.940Z,15.05
2022-11-01T08:45:19.598Z,15.13
2022-11-01T08:47:46.130Z,15.13
2022-11-01T08:50:18.179Z,15.28
2022-11-01T08:52:46.947Z,15.35
2022-11-01T08:55:13.423Z,15.23
2022-11-01T08:57:39.981Z,15.36
2022-11-01T09:00:07.191Z,15.54
2022-11-01T09:02:34.072Z,15.41
2022-11-01T09:05:05.020Z,15.46
2022-11-01T09:07:31.737Z,15.47
2022-11-01T09:09:59.395Z,15.48
2022-11-01T09:12:29.025Z,15.54
2022-11-01T09:14:55.614Z,15.61
2022-11-01T09:17:22.209Z,15.65
2022-11-01T09:19:48.765Z,15.49
2022-11-01T09:22:15.287Z,15.52
2022-11-01T09:24:45.194Z,15.49
2022-11-01T09:27:14.321Z,15.56
2022-11-01T09:29:40.857Z,15.47
2022-11-01T09:32:07.560Z,15.53
2022-11-01T09:34:34.492Z,15.61
2022-11-01T09:37:03.088Z,15.73
2022-11-01T09:39:29.627Z,15.79
2022-11-01T09:42:04.227Z,15.82
2022-11-01T09:44:35.853Z,15.85
2022-11-01T09:47:09.317Z,15.84
2022-11-01T09:49:38.589Z,15.80
2022-11-01T09:52:06.173Z,15.71
2022-11-01T09:54:44.040Z,15.76
2022-11-01T09:57:37.830Z,15.79
2022-11-01T10:00:13.325Z,15.82
2022-11-01T10:03:34.146Z,15.86
2022-11-01T10:06:17.897Z,16.07
2022-11-01T10:08:58.921Z,16.29
2022-11-01T10:11:36.386Z,16.54
2022-11-01T10:14:42.502Z,16.69
2022-11-01T10:17:19.968Z,16.47
2022-11-01T10:19:48.762Z,16.40
2022-11-01T10:22:35.542Z,16.24
2022-11-01T10:25:10.746Z,16.33
2022-11-01T10:27:52.197Z,16.47
2022-11-01T10:30:19.772Z,16.65
2022-11-01T10:32:58.241Z,16.56
2022-11-01T10:35:29.849Z,16.38
2022-11-01T10:38:35.158Z,16.64
2022-11-01T10:41:50.748Z,16.42
2022-11-01T10:44:27.836Z,16.35
2022-11-01T10:46:54.836Z,16.34
2022-11-01T10:49:35.070Z,16.31
2022-11-01T10:52:08.566Z,16.32
2022-11-01T10:54:37.282Z,16.29
2022-11-01T10:57:08.295Z,16.50
2022-11-01T10:59:41.379Z,16.66
2022-11-01T11:02:43.719Z,16.57
2022-11-01T11:05:14.540Z,16.57
2022-11-01T11:07:41.821Z,16.77
2022-11-01T11:10:24.073Z,16.83
2022-11-01T11:12:54.089Z,16.50
2022-11-01T11:15:28.650Z,16.43
2022-11-01T11:17:57.940Z,16.36
2022-11-01T11:20:26.481Z,16.30
2022-11-01T11:22:53.281Z,16.23
2022-11-01T11:25:23.442Z,16.25
2022-11-01T11:27:54.919Z,16.29
2022-11-01T11:30:30.275Z,16.62
2022-11-01T11:32:58.627Z,17.03
2022-11-01T11:35:27.553Z,17.18
2022-11-01T11:38:00.120Z,17.68
2022-11-01T11:40:39.115Z,17.74
2022-11-01T11:43:33.212Z,17.75
2022-11-01T11:46:12.373Z,17.09
2022-11-01T11:48:53.170Z,16.37
2022-11-01T11:51:21.523Z,16.54
2022-11-01T11:54:06.830Z,16.52
2022-11-01T11:56:36.148Z,16.01
2022-11-01T11:59:08.507Z,15.67
2022-11-01T12:01:35.431Z,15.55
2022-11-01T12:04:12.402Z,15.47
2022-11-01T12:06:46.649Z,15.46
2022-11-01T12:09:36.852Z,15.37
2022-11-01T12:12:27.248Z,15.36
2022-11-01T12:14:56.271Z,15.39
2022-11-01T12:17:26.793Z,15.36
2022-11-01T12:20:15.494Z,15.28
2022-11-01T12:23:02.896Z,15.26
2022-11-01T12:25:29.596Z,15.21
2022-11-01T12:28:01.875Z,15.12
2022-11-01T12:30:31.397Z,15.09
2022-11-01T12:32:59.775Z,14.77
2022-11-01T12:35:37.704Z,14.63
2022-11-01T12:38:35.082Z,14.22
2022-11-01T12:41:13.723Z,14.12
2022-11-01T12:44:13.978Z,14.19
2022-11-01T12:46:55.303Z,14.41
2022-11-01T12:49:36.993Z,14.63
2022-11-01T12:52:14.142Z,14.67
2022-11-01T12:54:46.949Z,15.46
2022-11-01T12:57:16.025Z,15.79
2022-11-01T12:59:43.881Z,16.75
2022-11-01T13:02:29.907Z,17.20
2022-11-01T13:05:06.445Z,17.53
2022-11-01T13:07:35.723Z,17.67
2022-11-01T13:10:20.662Z,16.47
2022-11-01T13:12:59.543Z,15.83
2022-11-01T13:16:16.724Z,15.58
2022-11-01T13:19:30.024Z,15.41
2022-11-01T13:22:29.827Z,15.31
2022-11-01T13:25:18.378Z,15.20
2022-11-01T13:28:02.328Z,15.21
2022-11-01T13:30:28.629Z,15.13
2022-11-01T13:33:33.952Z,15.15
2022-11-01T13:36:17.945Z,15.19
2022-11-01T13:39:02.047Z,15.21
2022-11-01T13:41:33.943Z,15.20
2022-11-01T13:44:11.614Z,15.15
2022-11-01T13:46:41.705Z,15.14
2022-11-01T13:49:11.028Z,15.09
2022-11-01T13:51:41.557Z,15.08
2022-11-01T13:54:27.688Z,15.13
2022-11-01T13:57:13.992Z,15.05
2022-11-01T13:59:44.380Z,15.05
2022-11-01T14:02:23.380Z,15.02
2022-11-01T14:05:03.643Z,15.03
2022-11-01T14:07:45.191Z,15.08
2022-11-01T14:10:31.440Z,15.06
2022-11-01T14:13:06.864Z,15.13
2022-11-01T14:15:54.962Z,15.09
2022-11-01T14:18:21.626Z,15.13
2022-11-01T14:20:50.471Z,15.16
2022-11-01T14:23:27.671Z,15.18
2022-11-01T14:26:19.019Z,15.14
2022-11-01T14:28:55.293Z,15.11
2022-11-01T14:31:25.628Z,15.12
2022-11-01T14:33:56.107Z,15.10
2022-11-01T14:36:28.415Z,15.05
2022-11-01T14:39:15.346Z,15.05
2022-11-01T14:41:46.027Z,15.04
2022-11-01T14:44:30.605Z,15.00
2022-11-01T14:47:05.312Z,14.97
2022-11-01T14:49:43.230Z,15.03
2022-11-01T14:52:24.624Z,15.02
2022-11-01T14:55:04.423Z,14.95
2022-11-01T14:57:33.268Z,14.84
2022-11-01T15:00:11.340Z,14.75
2022-11-01T15:02:38.145Z,14.89
2022-11-01T15:05:04.847Z,14.80
2022-11-01T15:07:38.038Z,14.83
2022-11-01T15:10:13.731Z,14.80
2022-11-01T15:12:47.965Z,14.84
2022-11-01T15:15:23.846Z,14.68
2022-11-01T15:18:02.732Z,14.82
2022-11-01T15:20:34.886Z,14.73
2022-11-01T15:23:07.603Z,14.75
2022-11-01T15:25:34.100Z,14.79
2022-11-01T15:28:00.651Z,14.85
2022-11-01T15:30:30.235Z,14.85
2022-11-01T15:33:16.582Z,14.77
2022-11-01T15:35:43.113Z,14.76
2022-11-01T15:38:20.605Z,14.78
2022-11-01T15:40:48.486Z,14.83
2022-11-01T15:43:18.153Z,14.63
2022-11-01T15:46:07.641Z,14.64
2022-11-01T15:48:35.667Z,14.67
2022-11-01T15:51:07.292Z,14.49
2022-11-01T15:53:35.462Z,14.41
2022-11-01T15:56:15.773Z,14.59
2022-11-01T15:59:02.451Z,14.62
2022-11-01T16:01:29.050Z,14.52
2022-11-01T16:04:00.537Z,14.57
2022-11-01T16:06:44.788Z,14.40
2022-11-01T16:09:28.212Z,14.43
2022-11-01T16:11:59.235Z,14.38
2022-11-01T16:14:33.563Z,14.48
2022-11-01T16:17:06.350Z,14.50
2022-11-01T16:19:37.200Z,14.53
2022-11-01T16:22:05.332Z,14.55
2022-11-01T16:24:32.325Z,14.55
2022-11-01T16:27:03.529Z,14.52
2022-11-01T16:29:48.383Z,14.55
2022-11-01T16:32:27.194Z,14.41
2022-11-01T16:34:55.838Z,14.44
2022-11-01T16:37:27.583Z,14.38
2022-11-01T16:39:54.384Z,14.33
2022-11-01T16:42:21.853Z,14.36
2022-11-01T16:44:55.711Z,14.30
2022-11-01T16:47:22.748Z,14.06
2022-11-01T16:49:51.325Z,14.11
2022-11-01T16:52:18.387Z,14.05
2022-11-01T16:54:48.919Z,13.94
2022-11-01T16:57:27.184Z,14.01
2022-11-01T16:59:57.288Z,13.95
2022-11-01T17:02:29.627Z,14.01
2022-11-01T17:05:16.854Z,14.06
2022-11-01T17:07:43.313Z,14.01
2022-11-01T17:10:18.162Z,14.06
2022-11-01T17:12:45.112Z,13.89
2022-11-01T17:15:12.986Z,14.01
2022-11-01T17:17:40.698Z,13.95
2022-11-01T17:20:14.453Z,13.97
2022-11-01T17:22:41.710Z,13.91
2022-11-01T17:25:14.804Z,13.89
2022-11-01T17:27:41.254Z,13.97
2022-11-01T17:30:08.072Z,13.97
2022-11-01T17:32:34.516Z,14.08
2022-11-01T17:35:00.984Z,14.08
2022-11-01T17:37:31.396Z,14.02
2022-11-01T17:39:59.571Z,14.11
2022-11-01T17:42:26.040Z,14.22
2022-11-01T17:44:52.495Z,14.12
2022-11-01T17:47:19.109Z,14.14
2022-11-01T17:49:45.592Z,14.18
2022-11-01T17:52:12.024Z,14.17
2022-11-01T17:54:38.485Z,14.20
2022-11-01T17:57:04.929Z,14.19
2022-11-01T17:59:31.411Z,14.17
2022-11-01T18:01:58.113Z,14.15
2022-11-01T18:04:24.673Z,14.13
2022-11-01T18:06:51.947Z,14.03
2022-11-01T18:09:24.084Z,14.18
2022-11-01T18:11:58.564Z,14.24
2022-11-01T18:14:49.837Z,14.27
2022-11-01T18:17:18.889Z,14.31
2022-11-01T18:19:53.985Z,14.33
2022-11-01T18:22:35.509Z,14.30
2022-11-01T18:25:11.506Z,14.30
2022-11-01T18:27:39.032Z,14.36
2022-11-01T18:30:14.090Z,14.27
2022-11-01T18:33:02.050Z,14.26
2022-11-01T18:35:32.992Z,14.32
2022-11-01T18:38:12.714Z,14.30
2022-11-01T18:40:55.473Z,14.30
2022-11-01T18:43:21.963Z,14.26
2022-11-01T18:46:11.539Z,14.35
2022-11-01T18:48:35.069Z,14.23
2022-11-01T18:51:05.043Z,14.28
2022-11-01T18:53:33.222Z,14.21
2022-11-01T18:56:22.448Z,14.08
2022-11-01T18:58:50.170Z,13.97
2022-11-01T19:01:21.856Z,13.85
2022-11-01T19:03:58.280Z,13.94
2022-11-01T19:06:28.803Z,13.98
2022-11-01T19:08:57.088Z,13.90
2022-11-01T19:11:26.742Z,13.78
2022-11-01T19:13:53.700Z,13.79
2022-11-01T19:16:20.600Z,13.88
2022-11-01T19:18:49.581Z,13.98
2022-11-01T19:21:18.516Z,14.01
2022-11-01T19:23:54.457Z,14.01
2022-11-01T19:26:23.386Z,14.00
2022-11-01T19:28:52.372Z,13.97
2022-11-01T19:31:19.125Z,13.94
2022-11-01T19:33:46.737Z,13.83
2022-11-01T19:36:19.332Z,13.92
2022-11-01T19:38:46.587Z,13.91
2022-11-01T19:41:15.424Z,13.97
2022-11-01T19:43:41.875Z,14.00
2022-11-01T19:46:11.539Z,13.91
2022-11-01T19:48:38.100Z,13.90
2022-11-01T19:51:13.272Z,14.03
2022-11-01T19:53:42.435Z,13.96
2022-11-01T19:56:29.825Z,14.08
2022-11-01T19:59:00.479Z,14.11
2022-11-01T20:01:53.511Z,13.91
2022-11-01T20:04:27.889Z,14.07
2022-11-01T20:06:57.560Z,14.03
2022-11-01T20:09:26.636Z,14.07
2022-11-01T20:11:53.619Z,14.08
2022-11-01T20:14:20.782Z,14.11
2022-11-01T20:16:47.255Z,14.10
2022-11-01T20:19:17.412Z,14.11
2022-11-01T20:21:44.887Z,14.12
2022-11-01T20:24:11.433Z,14.15
2022-11-01T20:26:38.021Z,14.16
2022-11-01T20:29:04.524Z,14.19
2022-11-01T20:31:31.277Z,14.10
2022-11-01T20:33:58.198Z,14.09
2022-11-01T20:36:24.661Z,14.22
2022-11-01T20:38:51.140Z,14.14
2022-11-01T20:41:19.000Z,14.17
2022-11-01T20:43:45.471Z,14.30
2022-11-01T20:46:12.005Z,14.26
2022-11-01T20:48:38.456Z,14.23
2022-11-01T20:51:14.111Z,14.13
2022-11-01T20:53:41.204Z,14.07
2022-11-01T20:56:08.428Z,14.09
2022-11-01T20:58:40.124Z,14.02
2022-11-01T21:01:14.562Z,13.98
2022-11-01T21:03:41.132Z,13.96
2022-11-01T21:06:16.647Z,13.85
2022-11-01T21:08:46.961Z,13.78
2022-11-01T21:11:43.457Z,13.70
2022-11-01T21:14:19.712Z,13.63
2022-11-01T21:16:48.169Z,13.56
2022-11-01T21:19:22.414Z,13.61
2022-11-01T21:21:55.548Z,13.49
2022-11-01T21:24:30.624Z,13.57
2022-11-01T21:27:12.223Z,13.27
2022-11-01T21:29:48.977Z,13.18
2022-11-01T21:32:30.528Z,13.40
2022-11-01T21:34:58.259Z,13.29
2022-11-01T21:37:28.310Z,13.33
2022-11-01T21:40:01.544Z,13.39
2022-11-01T21:42:32.966Z,13.35
2022-11-01T21:45:00.089Z,13.31
2022-11-01T21:47:30.613Z,13.26
2022-11-01T21:49:57.172Z,13.24
2022-11-01T21:52:24.626Z,13.29
2022-11-01T21:54:52.664Z,13.19
2022-11-01T21:57:19.449Z,13.20
2022-11-01T21:59:46.090Z,13.30
2022-11-01T22:02:14.014Z,13.26
2022-11-01T22:04:40.756Z,13.30
2022-11-01T22:07:08.586Z,13.22
2022-11-01T22:09:35.368Z,13.26
2022-11-01T22:12:01.870Z,13.38
2022-11-01T22:14:28.391Z,13.36
2022-11-01T22:16:54.982Z,13.45
2022-11-01T22:19:21.486Z,13.44
2022-11-01T22:21:48.026Z,13.42
2022-11-01T22:24:14.604Z,13.42
2022-11-01T22:26:41.051Z,13.50
2022-11-01T22:29:07.511Z,13.47
2022-11-01T22:31:34.059Z,13.47
2022-11-01T22:34:01.327Z,13.48
2022-11-01T22:36:30.003Z,13.49
2022-11-01T22:38:59.616Z,13.43
2022-11-01T22:41:33.256Z,13.53
2022-11-01T22:44:05.916Z,13.45
2022-11-01T22:46:46.513Z,13.44
2022-11-01T22:49:20.442Z,13.49
2022-11-01T22:51:50.484Z,13.53
2022-11-01T22:54:27.652Z,13.51
2022-11-01T22:57:21.864Z,13.37
2022-11-01T22:59:51.240Z,13.49
2022-11-01T23:02:30.927Z,13.58
2022-11-01T23:05:06.782Z,13.53
2022-11-01T23:07:35.882Z,13.29
2022-11-01T23:10:05.446Z,13.54
2022-11-01T23:12:52.445Z,13.57
2022-11-01T23:15:23.362Z,13.55
2022-11-01T23:17:49.816Z,13.45
2022-11-01T23:20:17.253Z,13.50
2022-11-01T23:22:43.707Z,13.50
2022-11-01T23:25:10.147Z,13.50
2022-11-01T23:27:36.712Z,13.24
2022-11-01T23:30:03.331Z,13.32
2022-11-01T23:32:30.575Z,13.33
2022-11-01T23:35:11.648Z,13.30
2022-11-01T23:37:38.090Z,13.34
2022-11-01T23:40:13.405Z,13.30
2022-11-01T23:42:39.869Z,13.29
2022-11-01T23:45:20.493Z,13.31
2022-11-01T23:47:46.946Z,13.36
2022-11-01T23:50:20.023Z,13.33
2022-11-01T23:52:48.494Z,13.30
2022-11-01T23:55:24.285Z,13.28
2022-11-01T23:57:55.732Z,13.32
